<?xml version="1.0" encoding="UTF-8"?><gpx xmlns="http://www.topografix.com/GPX/1/1" version="1.1" creator="iOrient"><trk><name>Серия открытых трейл-пробегов межсезонья - "Урочище Слуда"</name><trkseg><trkpt lat="56.2575950" lon="43.9698460"><time>2018-01-13T23:10:30.427</time></trkpt><trkpt lat="56.2578340" lon="43.9699280"><time>2018-01-13T23:10:47.420</time></trkpt><trkpt lat="56.2580580" lon="43.9700230"><time>2018-01-13T23:10:56.433</time></trkpt><trkpt lat="56.2582830" lon="43.9700920"><time>2018-01-13T23:11:03.423</time></trkpt><trkpt lat="56.2585260" lon="43.9701180"><time>2018-01-13T23:11:10.420</time></trkpt><trkpt lat="56.2587550" lon="43.9702310"><time>2018-01-13T23:11:18.427</time></trkpt><trkpt lat="56.2589880" lon="43.9703250"><time>2018-01-13T23:11:27.420</time></trkpt><trkpt lat="56.2608550" lon="43.9707860"><time>2018-01-13T23:12:30.017</time></trkpt><trkpt lat="56.2612840" lon="43.9708200"><time>2018-01-13T23:12:43.647</time></trkpt><trkpt lat="56.2615120" lon="43.9708130"><time>2018-01-13T23:12:54.427</time></trkpt><trkpt lat="56.2617440" lon="43.9707770"><time>2018-01-13T23:13:08.427</time></trkpt><trkpt lat="56.2619640" lon="43.9709720"><time>2018-01-13T23:13:14.423</time></trkpt><trkpt lat="56.2621770" lon="43.9711210"><time>2018-01-13T23:13:19.427</time></trkpt><trkpt lat="56.2623770" lon="43.9713270"><time>2018-01-13T23:13:29.417</time></trkpt><trkpt lat="56.2626200" lon="43.9713820"><time>2018-01-13T23:13:38.427</time></trkpt><trkpt lat="56.2657100" lon="43.9719470"><time>2018-01-13T23:15:29.907</time></trkpt><trkpt lat="56.2691050" lon="43.9724600"><time>2018-01-13T23:17:29.907</time></trkpt><trkpt lat="56.2724980" lon="43.9721410"><time>2018-01-13T23:19:29.907</time></trkpt><trkpt lat="56.2758880" lon="43.9710690"><time>2018-01-13T23:21:29.907</time></trkpt><trkpt lat="56.2761200" lon="43.9713110"><time>2018-01-13T23:21:41.030</time></trkpt><trkpt lat="56.2762320" lon="43.9716250"><time>2018-01-13T23:21:50.180</time></trkpt><trkpt lat="56.2762620" lon="43.9716440"><time>2018-01-13T23:21:53.423</time></trkpt><trkpt lat="56.2763080" lon="43.9720470"><time>2018-01-13T23:22:10.417</time></trkpt><trkpt lat="56.2763440" lon="43.9724640"><time>2018-01-13T23:22:28.423</time></trkpt><trkpt lat="56.2763730" lon="43.9728690"><time>2018-01-13T23:22:44.423</time></trkpt><trkpt lat="56.2770270" lon="43.9745360"><time>2018-01-13T23:24:29.693</time></trkpt><trkpt lat="56.2783360" lon="43.9762050"><time>2018-01-13T23:26:29.693</time></trkpt><trkpt lat="56.2800550" lon="43.9755580"><time>2018-01-13T23:28:29.693</time></trkpt><trkpt lat="56.2825020" lon="43.9735740"><time>2018-01-13T23:30:27.523</time></trkpt><trkpt lat="56.2825620" lon="43.9735380"><time>2018-01-13T23:30:44.220</time></trkpt><trkpt lat="56.2826130" lon="43.9732110"><time>2018-01-13T23:31:00.443</time></trkpt><trkpt lat="56.2827720" lon="43.9729150"><time>2018-01-13T23:31:10.440</time></trkpt><trkpt lat="56.2829140" lon="43.9725680"><time>2018-01-13T23:31:22.427</time></trkpt><trkpt lat="56.2831150" lon="43.9722970"><time>2018-01-13T23:31:30.427</time></trkpt><trkpt lat="56.2833110" lon="43.9720860"><time>2018-01-13T23:31:39.430</time></trkpt><trkpt lat="56.2835030" lon="43.9718380"><time>2018-01-13T23:31:49.427</time></trkpt><trkpt lat="56.2853100" lon="43.9696980"><time>2018-01-13T23:33:29.693</time></trkpt><trkpt lat="56.2859500" lon="43.9700230"><time>2018-01-13T23:34:06.530</time></trkpt><trkpt lat="56.2859370" lon="43.9699840"><time>2018-01-13T23:34:09.857</time></trkpt><trkpt lat="56.2861320" lon="43.9702640"><time>2018-01-13T23:34:42.420</time></trkpt><trkpt lat="56.2863450" lon="43.9704120"><time>2018-01-13T23:35:07.430</time></trkpt><trkpt lat="56.2866900" lon="43.9711450"><time>2018-01-13T23:36:29.693</time></trkpt><trkpt lat="56.2872180" lon="43.9718180"><time>2018-01-13T23:38:29.693</time></trkpt><trkpt lat="56.2882130" lon="43.9731760"><time>2018-01-13T23:40:29.697</time></trkpt><trkpt lat="56.2905280" lon="43.9726640"><time>2018-01-13T23:42:29.293</time></trkpt><trkpt lat="56.2932850" lon="43.9719860"><time>2018-01-13T23:44:29.297</time></trkpt><trkpt lat="56.2961840" lon="43.9717980"><time>2018-01-13T23:46:29.917</time></trkpt><trkpt lat="56.2963070" lon="43.9741840"><time>2018-01-13T23:48:29.503</time></trkpt><trkpt lat="56.2976940" lon="43.9761200"><time>2018-01-13T23:50:29.503</time></trkpt><trkpt lat="56.2976330" lon="43.9760960"><time>2018-01-13T23:50:41.127</time></trkpt><trkpt lat="56.2976340" lon="43.9760960"><time>2018-01-13T23:50:43.820</time></trkpt><trkpt lat="56.2976740" lon="43.9756890"><time>2018-01-13T23:50:58.837</time></trkpt><trkpt lat="56.2976770" lon="43.9752730"><time>2018-01-13T23:51:08.417</time></trkpt><trkpt lat="56.2976960" lon="43.9748450"><time>2018-01-13T23:51:14.420</time></trkpt><trkpt lat="56.2977800" lon="43.9744470"><time>2018-01-13T23:51:23.420</time></trkpt><trkpt lat="56.2977780" lon="43.9740350"><time>2018-01-13T23:51:30.420</time></trkpt><trkpt lat="56.2978220" lon="43.9736190"><time>2018-01-13T23:51:42.417</time></trkpt><trkpt lat="56.2984820" lon="43.9687570"><time>2018-01-13T23:53:29.507</time></trkpt><trkpt lat="56.2958930" lon="43.9673160"><time>2018-01-13T23:55:29.507</time></trkpt><trkpt lat="56.2957960" lon="43.9673620"><time>2018-01-13T23:55:32.743</time></trkpt><trkpt lat="56.2956270" lon="43.9676420"><time>2018-01-13T23:55:41.457</time></trkpt><trkpt lat="56.2953940" lon="43.9676560"><time>2018-01-13T23:55:49.473</time></trkpt><trkpt lat="56.2951610" lon="43.9676460"><time>2018-01-13T23:55:58.457</time></trkpt><trkpt lat="56.2949260" lon="43.9677060"><time>2018-01-13T23:56:09.420</time></trkpt><trkpt lat="56.2947020" lon="43.9678770"><time>2018-01-13T23:56:19.453</time></trkpt><trkpt lat="56.2944720" lon="43.9679290"><time>2018-01-13T23:56:29.420</time></trkpt><trkpt lat="56.2942320" lon="43.9679260"><time>2018-01-13T23:56:38.447</time></trkpt><trkpt lat="56.2939990" lon="43.9679270"><time>2018-01-13T23:56:47.420</time></trkpt><trkpt lat="56.2937720" lon="43.9679950"><time>2018-01-13T23:56:56.420</time></trkpt><trkpt lat="56.2935440" lon="43.9680930"><time>2018-01-13T23:57:04.423</time></trkpt><trkpt lat="56.2933130" lon="43.9681640"><time>2018-01-13T23:57:13.420</time></trkpt><trkpt lat="56.2930720" lon="43.9681780"><time>2018-01-13T23:57:20.423</time></trkpt><trkpt lat="56.2928320" lon="43.9681510"><time>2018-01-13T23:57:28.423</time></trkpt><trkpt lat="56.2926000" lon="43.9681220"><time>2018-01-13T23:57:35.427</time></trkpt><trkpt lat="56.2895360" lon="43.9688150"><time>2018-01-13T23:59:29.503</time></trkpt><trkpt lat="56.2862310" lon="43.9696900"><time>2018-01-14T00:01:29.503</time></trkpt><trkpt lat="56.2828350" lon="43.9697890"><time>2018-01-14T00:03:29.507</time></trkpt><trkpt lat="56.2804910" lon="43.9696380"><time>2018-01-14T00:04:47.427</time></trkpt><trkpt lat="56.2802490" lon="43.9696020"><time>2018-01-14T00:04:55.440</time></trkpt><trkpt lat="56.2800000" lon="43.9695180"><time>2018-01-14T00:05:03.417</time></trkpt><trkpt lat="56.2797690" lon="43.9694230"><time>2018-01-14T00:05:10.433</time></trkpt><trkpt lat="56.2795360" lon="43.9693780"><time>2018-01-14T00:05:17.467</time></trkpt><trkpt lat="56.2792940" lon="43.9692770"><time>2018-01-14T00:05:24.483</time></trkpt><trkpt lat="56.2790530" lon="43.9691750"><time>2018-01-14T00:05:31.440</time></trkpt><trkpt lat="56.2788120" lon="43.9691350"><time>2018-01-14T00:05:38.473</time></trkpt><trkpt lat="56.2785870" lon="43.9692240"><time>2018-01-14T00:05:45.430</time></trkpt><trkpt lat="56.2783350" lon="43.9692260"><time>2018-01-14T00:05:53.447</time></trkpt><trkpt lat="56.2780830" lon="43.9693080"><time>2018-01-14T00:06:01.420</time></trkpt><trkpt lat="56.2778600" lon="43.9693750"><time>2018-01-14T00:06:08.420</time></trkpt><trkpt lat="56.2776340" lon="43.9693730"><time>2018-01-14T00:06:16.420</time></trkpt><trkpt lat="56.2773880" lon="43.9693450"><time>2018-01-14T00:06:25.423</time></trkpt><trkpt lat="56.2771530" lon="43.9694310"><time>2018-01-14T00:06:33.420</time></trkpt><trkpt lat="56.2769120" lon="43.9694780"><time>2018-01-14T00:06:40.420</time></trkpt><trkpt lat="56.2766690" lon="43.9695760"><time>2018-01-14T00:06:48.663</time></trkpt><trkpt lat="56.2764420" lon="43.9697430"><time>2018-01-14T00:06:57.417</time></trkpt><trkpt lat="56.2761930" lon="43.9697180"><time>2018-01-14T00:07:05.453</time></trkpt><trkpt lat="56.2759640" lon="43.9696930"><time>2018-01-14T00:07:12.420</time></trkpt><trkpt lat="56.2757280" lon="43.9697340"><time>2018-01-14T00:07:21.457</time></trkpt><trkpt lat="56.2754770" lon="43.9697830"><time>2018-01-14T00:07:30.517</time></trkpt><trkpt lat="56.2752410" lon="43.9697830"><time>2018-01-14T00:07:39.437</time></trkpt><trkpt lat="56.2750160" lon="43.9698570"><time>2018-01-14T00:07:45.450</time></trkpt><trkpt lat="56.2747660" lon="43.9697820"><time>2018-01-14T00:07:51.423</time></trkpt><trkpt lat="56.2745230" lon="43.9697610"><time>2018-01-14T00:07:59.423</time></trkpt><trkpt lat="56.2742870" lon="43.9698120"><time>2018-01-14T00:08:08.430</time></trkpt><trkpt lat="56.2740440" lon="43.9698320"><time>2018-01-14T00:08:16.423</time></trkpt><trkpt lat="56.2738130" lon="43.9697800"><time>2018-01-14T00:08:23.423</time></trkpt><trkpt lat="56.2735690" lon="43.9698400"><time>2018-01-14T00:08:32.423</time></trkpt><trkpt lat="56.2733150" lon="43.9698270"><time>2018-01-14T00:08:41.420</time></trkpt><trkpt lat="56.2728950" lon="43.9700840"><time>2018-01-14T00:08:57.420</time></trkpt><trkpt lat="56.2727280" lon="43.9701520"><time>2018-01-14T00:09:10.950</time></trkpt><trkpt lat="56.2726980" lon="43.9702780"><time>2018-01-14T00:09:18.423</time></trkpt><trkpt lat="56.2724740" lon="43.9704180"><time>2018-01-14T00:09:31.433</time></trkpt><trkpt lat="56.2722460" lon="43.9705760"><time>2018-01-14T00:09:41.430</time></trkpt><trkpt lat="56.2720050" lon="43.9706930"><time>2018-01-14T00:09:55.420</time></trkpt><trkpt lat="56.2717600" lon="43.9706950"><time>2018-01-14T00:10:03.447</time></trkpt><trkpt lat="56.2699930" lon="43.9714730"><time>2018-01-14T00:11:29.507</time></trkpt><trkpt lat="56.2666070" lon="43.9697310"><time>2018-01-14T00:13:29.503</time></trkpt><trkpt lat="56.2634010" lon="43.9692920"><time>2018-01-14T00:15:29.503</time></trkpt><trkpt lat="56.2601790" lon="43.9673480"><time>2018-01-14T00:17:29.503</time></trkpt><trkpt lat="56.2574580" lon="43.9651330"><time>2018-01-14T00:19:29.503</time></trkpt><trkpt lat="56.2574070" lon="43.9651220"><time>2018-01-14T00:19:30.540</time></trkpt><trkpt lat="56.2573190" lon="43.9652020"><time>2018-01-14T00:19:42.283</time></trkpt><trkpt lat="56.2572030" lon="43.9653190"><time>2018-01-14T00:19:54.420</time></trkpt><trkpt lat="56.2569930" lon="43.9651240"><time>2018-01-14T00:20:07.420</time></trkpt><trkpt lat="56.2567660" lon="43.9651560"><time>2018-01-14T00:20:18.423</time></trkpt><trkpt lat="56.2565380" lon="43.9650760"><time>2018-01-14T00:20:30.420</time></trkpt><trkpt lat="56.2563220" lon="43.9649500"><time>2018-01-14T00:20:41.427</time></trkpt><trkpt lat="56.2551480" lon="43.9658420"><time>2018-01-14T00:22:27.427</time></trkpt><trkpt lat="56.2551660" lon="43.9662540"><time>2018-01-14T00:22:39.423</time></trkpt><trkpt lat="56.2552910" lon="43.9666060"><time>2018-01-14T00:22:49.423</time></trkpt><trkpt lat="56.2553620" lon="43.9670080"><time>2018-01-14T00:23:00.427</time></trkpt><trkpt lat="56.2554800" lon="43.9673680"><time>2018-01-14T00:23:11.427</time></trkpt><trkpt lat="56.2553930" lon="43.9677580"><time>2018-01-14T00:23:21.423</time></trkpt><trkpt lat="56.2553080" lon="43.9681510"><time>2018-01-14T00:23:31.413</time></trkpt><trkpt lat="56.2552340" lon="43.9685790"><time>2018-01-14T00:23:39.420</time></trkpt><trkpt lat="56.2551680" lon="43.9689040"><time>2018-01-14T00:23:49.417</time></trkpt></trkseg></trk></gpx>